createdAt,value
2023-02-06T00:00:06.803Z,16.75
2023-02-06T00:02:11.644Z,14.27
2023-02-06T00:04:17.323Z,15.13
2023-02-06T00:06:22.266Z,15.90
2023-02-06T00:08:27.147Z,13.13
2023-02-06T00:10:32.019Z,15.63
2023-02-06T00:12:37.745Z,15.98
2023-02-06T00:14:45.233Z,14.48
2023-02-06T00:16:50.043Z,15.27
2023-02-06T00:18:56.126Z,14.57
2023-02-06T00:21:01.081Z,16.05
2023-02-06T00:23:06.012Z,15.57
2023-02-06T00:25:11.492Z,15.30
2023-02-06T00:27:17.688Z,14.73
2023-02-06T00:29:22.623Z,14.77
2023-02-06T00:31:30.145Z,13.43
2023-02-06T00:33:35.030Z,16.13
2023-02-06T00:35:41.242Z,15.60
2023-02-06T00:39:50.705Z,19.77
2023-02-06T00:41:55.844Z,14.82
2023-02-06T00:46:05.913Z,20.60
2023-02-06T00:48:16.720Z,15.90
2023-02-06T00:50:21.779Z,19.17
2023-02-06T00:52:26.649Z,18.65
2023-02-06T00:54:31.665Z,17.52
2023-02-06T00:56:36.689Z,14.90
2023-02-06T00:58:41.478Z,16.88
2023-02-06T01:00:48.956Z,16.17
2023-02-06T01:02:54.094Z,16.83
2023-02-06T01:07:06.174Z,15.30
2023-02-06T01:09:11.076Z,15.23
2023-02-06T01:11:17.586Z,16.50
2023-02-06T01:13:22.607Z,18.10
2023-02-06T01:15:27.447Z,19.38
2023-02-06T01:17:33.861Z,16.55
2023-02-06T01:19:40.129Z,16.25
2023-02-06T01:21:47.664Z,15.30
2023-02-06T01:23:55.428Z,16.27
2023-02-06T01:26:00.365Z,16.17
2023-02-06T01:28:05.202Z,13.65
2023-02-06T01:30:11.845Z,17.17
2023-02-06T01:32:16.714Z,18.23
2023-02-06T01:34:21.559Z,16.48
2023-02-06T01:36:26.960Z,20.23
2023-02-06T01:38:34.577Z,17.17
2023-02-06T01:40:40.050Z,15.98
2023-02-06T01:42:46.055Z,17.27
2023-02-06T01:44:50.871Z,15.27
2023-02-06T01:46:58.815Z,18.52
2023-02-06T01:49:06.706Z,18.30
2023-02-06T01:51:17.360Z,16.48
2023-02-06T01:53:24.399Z,17.02
2023-02-06T01:55:32.090Z,17.02
2023-02-06T01:57:41.545Z,15.63
2023-02-06T01:59:52.349Z,15.65
2023-02-06T02:01:57.208Z,15.32
2023-02-06T02:04:07.209Z,15.27
2023-02-06T02:06:13.858Z,18.35
2023-02-06T02:08:23.372Z,16.40
2023-02-06T02:10:31.356Z,15.43
2023-02-06T02:12:36.737Z,16.63
2023-02-06T02:14:44.021Z,17.10
2023-02-06T02:17:03.624Z,14.27
2023-02-06T02:19:41.881Z,15.35
2023-02-06T02:22:11.353Z,16.55
2023-02-06T02:24:23.685Z,16.08
2023-02-06T02:27:01.370Z,15.55
2023-02-06T02:29:39.490Z,17.30
2023-02-06T02:32:07.402Z,14.02
2023-02-06T02:34:36.453Z,14.50
2023-02-06T02:36:46.926Z,15.95
2023-02-06T02:39:02.381Z,16.10
2023-02-06T02:43:27.069Z,11.40
2023-02-06T02:45:39.879Z,13.02
2023-02-06T02:47:50.259Z,13.27
2023-02-06T02:49:57.307Z,12.02
2023-02-06T02:52:05.430Z,11.00
2023-02-06T02:54:11.002Z,11.63
2023-02-06T02:56:20.785Z,12.35
2023-02-06T02:58:31.443Z,14.32
2023-02-06T03:00:39.671Z,10.23
2023-02-06T03:02:47.245Z,11.77
2023-02-06T03:04:56.754Z,9.27
2023-02-06T03:07:23.005Z,10.52
2023-02-06T03:09:37.761Z,11.90
2023-02-06T03:11:48.254Z,13.73
2023-02-06T03:13:58.620Z,10.43
2023-02-06T03:16:10.553Z,11.60
2023-02-06T03:18:21.291Z,10.70
2023-02-06T03:20:27.774Z,11.45
2023-02-06T03:22:37.809Z,11.63
2023-02-06T03:24:42.993Z,12.50
2023-02-06T03:28:56.653Z,12.40
2023-02-06T03:31:04.053Z,12.32
2023-02-06T03:33:13.861Z,11.77
2023-02-06T03:35:22.718Z,16.90
2023-02-06T03:37:28.596Z,14.23
2023-02-06T03:39:36.619Z,14.32
2023-02-06T03:41:43.510Z,11.30
2023-02-06T03:43:51.702Z,12.57
2023-02-06T03:46:01.201Z,14.35
2023-02-06T03:48:10.784Z,26.77
2023-02-06T03:50:16.844Z,28.55
2023-02-06T03:52:26.649Z,23.98
2023-02-06T03:54:36.533Z,20.27
2023-02-06T03:56:47.377Z,16.88
2023-02-06T03:58:52.448Z,14.63
2023-02-06T04:00:57.367Z,16.10
2023-02-06T04:03:03.146Z,18.30
2023-02-06T04:05:09.010Z,15.38
2023-02-06T04:07:20.855Z,13.10
2023-02-06T04:09:25.806Z,13.20
2023-02-06T04:11:33.254Z,13.65
2023-02-06T04:13:38.501Z,14.98
2023-02-06T04:15:43.487Z,11.18
2023-02-06T04:17:59.567Z,10.73
2023-02-06T04:20:06.881Z,12.82
2023-02-06T04:22:15.723Z,13.43
2023-02-06T04:24:20.656Z,13.35
2023-02-06T04:26:25.433Z,13.25
2023-02-06T04:28:33.009Z,12.93
2023-02-06T04:30:37.846Z,12.18
2023-02-06T04:32:42.709Z,14.40
2023-02-06T04:34:47.617Z,13.98
2023-02-06T04:36:52.841Z,10.63
2023-02-06T04:38:57.634Z,11.88
2023-02-06T04:41:05.675Z,12.30
2023-02-06T04:43:10.553Z,12.43
2023-02-06T04:45:17.977Z,12.23
2023-02-06T04:47:22.812Z,11.20
2023-02-06T04:49:27.749Z,10.20
2023-02-06T04:51:32.644Z,12.18
2023-02-06T04:53:37.526Z,13.65
2023-02-06T04:55:42.317Z,16.58
2023-02-06T04:57:51.444Z,11.85
2023-02-06T04:59:56.277Z,10.07
2023-02-06T05:02:04.546Z,12.27
2023-02-06T05:04:09.384Z,10.95
2023-02-06T05:06:14.381Z,9.68
2023-02-06T05:08:19.162Z,11.45
2023-02-06T05:10:24.114Z,12.50
2023-02-06T05:12:29.075Z,12.38
2023-02-06T05:14:34.087Z,12.10
2023-02-06T05:16:38.911Z,12.25
2023-02-06T05:18:49.014Z,12.52
2023-02-06T05:20:53.830Z,10.30
2023-02-06T05:22:58.796Z,10.57
2023-02-06T05:25:03.609Z,11.80
2023-02-06T05:27:08.448Z,10.90
2023-02-06T05:29:13.335Z,10.85
2023-02-06T05:31:20.209Z,14.48
2023-02-06T05:33:25.489Z,11.70
2023-02-06T05:37:39.734Z,13.95
2023-02-06T05:39:44.865Z,10.10
2023-02-06T05:43:54.281Z,15.27
2023-02-06T05:45:59.162Z,12.30
2023-02-06T05:48:04.110Z,11.85
2023-02-06T05:50:09.519Z,11.77
2023-02-06T05:52:17.592Z,10.32
2023-02-06T05:54:22.467Z,9.88
2023-02-06T05:56:27.388Z,11.38
2023-02-06T05:58:32.199Z,10.52
2023-02-06T06:00:37.234Z,12.55
2023-02-06T06:02:42.837Z,9.38
2023-02-06T06:04:47.827Z,10.05
2023-02-06T06:06:52.864Z,12.45
2023-02-06T06:09:01.418Z,10.60
2023-02-06T06:11:07.418Z,13.75
2023-02-06T06:13:12.634Z,13.75
2023-02-06T06:15:17.529Z,13.63
2023-02-06T06:17:22.391Z,15.52
2023-02-06T06:19:27.194Z,12.38
2023-02-06T06:21:34.352Z,9.18
2023-02-06T06:23:42.311Z,12.73
2023-02-06T06:25:50.556Z,9.98
2023-02-06T06:27:55.478Z,14.45
2023-02-06T06:30:00.418Z,11.10
2023-02-06T06:32:05.281Z,13.13
2023-02-06T06:34:10.098Z,13.65
2023-02-06T06:36:16.349Z,13.80
2023-02-06T06:38:21.227Z,13.68
2023-02-06T06:40:28.665Z,16.48
2023-02-06T06:42:36.327Z,15.07
2023-02-06T06:44:41.115Z,15.15
2023-02-06T06:46:45.950Z,13.02
2023-02-06T06:48:50.847Z,11.77
2023-02-06T06:50:55.917Z,19.52
2023-02-06T06:53:00.707Z,15.63
2023-02-06T06:55:05.637Z,15.75
2023-02-06T06:57:10.490Z,16.20
2023-02-06T06:59:18.071Z,12.35
2023-02-06T07:01:26.000Z,13.90
2023-02-06T07:03:30.961Z,16.30
2023-02-06T07:05:36.929Z,15.85
2023-02-06T07:07:41.977Z,16.08
2023-02-06T07:09:50.445Z,14.57
2023-02-06T07:11:55.386Z,15.05
2023-02-06T07:14:00.164Z,16.80
2023-02-06T07:16:08.470Z,15.13
2023-02-06T07:18:13.344Z,16.90
2023-02-06T07:20:18.651Z,14.57
2023-02-06T07:22:23.667Z,14.07
2023-02-06T07:24:28.771Z,14.55
2023-02-06T07:28:38.641Z,16.23
2023-02-06T07:30:45.411Z,15.52
2023-02-06T07:32:53.958Z,14.68
2023-02-06T07:34:58.811Z,15.27
2023-02-06T07:37:03.912Z,14.10
2023-02-06T07:41:13.980Z,15.93
2023-02-06T07:43:19.189Z,18.55
2023-02-06T07:45:25.045Z,17.63
2023-02-06T07:47:29.995Z,17.00
2023-02-06T07:49:37.404Z,16.83
2023-02-06T07:51:42.484Z,15.02
2023-02-06T07:55:52.105Z,17.42
2023-02-06T07:57:58.051Z,18.63
2023-02-06T08:00:02.868Z,15.80
2023-02-06T08:02:16.947Z,20.35
2023-02-06T08:04:21.793Z,16.25
2023-02-06T08:06:29.657Z,19.92
2023-02-06T08:08:34.496Z,17.48
2023-02-06T08:10:41.072Z,18.92
2023-02-06T08:12:45.944Z,21.00
2023-02-06T08:14:50.873Z,20.55
2023-02-06T08:16:55.827Z,20.17
2023-02-06T08:21:06.233Z,19.50
2023-02-06T08:23:13.665Z,24.27
2023-02-06T08:25:18.840Z,23.90
2023-02-06T08:27:24.000Z,22.23
2023-02-06T08:29:29.529Z,21.35
2023-02-06T08:31:36.731Z,22.58
2023-02-06T08:33:41.662Z,21.50
2023-02-06T08:35:46.464Z,24.33
2023-02-06T08:37:51.263Z,23.10
2023-02-06T08:40:00.661Z,23.60
2023-02-06T08:42:05.523Z,25.08
2023-02-06T08:44:13.420Z,21.02
2023-02-06T08:46:20.218Z,21.63
2023-02-06T08:48:25.160Z,23.23
2023-02-06T08:50:31.356Z,22.92
2023-02-06T08:52:36.228Z,22.73
2023-02-06T08:54:41.017Z,21.00
2023-02-06T08:56:49.207Z,22.02
2023-02-06T08:58:54.459Z,20.70
2023-02-06T09:01:00.124Z,22.23
2023-02-06T09:03:05.609Z,21.98
2023-02-06T09:05:10.977Z,21.05
2023-02-06T09:07:17.341Z,63.95
2023-02-06T09:09:22.562Z,31.83
2023-02-06T09:11:28.768Z,27.10
2023-02-06T09:13:36.514Z,26.60
2023-02-06T09:15:43.274Z,24.75
2023-02-06T09:17:48.141Z,26.42
2023-02-06T09:19:52.928Z,25.40
2023-02-06T09:21:57.909Z,20.02
2023-02-06T09:24:04.531Z,24.33
2023-02-06T09:26:09.667Z,23.30
2023-02-06T09:28:14.991Z,21.25
2023-02-06T09:30:22.560Z,25.65
2023-02-06T09:32:27.358Z,25.65
2023-02-06T09:34:32.216Z,23.70
2023-02-06T09:36:37.744Z,20.20
2023-02-06T09:38:45.036Z,25.33
2023-02-06T09:40:49.827Z,23.00
2023-02-06T09:42:54.961Z,20.23
2023-02-06T09:47:23.365Z,20.67
2023-02-06T09:49:32.413Z,19.48
2023-02-06T09:51:52.343Z,20.00
2023-02-06T09:54:07.432Z,18.13
2023-02-06T09:56:20.260Z,18.33
2023-02-06T09:58:32.669Z,17.52
2023-02-06T10:00:44.912Z,16.45
2023-02-06T10:03:06.319Z,16.98
2023-02-06T10:05:22.754Z,17.92
2023-02-06T10:07:42.238Z,15.73
2023-02-06T10:09:53.576Z,15.02
2023-02-06T10:12:02.507Z,19.20
2023-02-06T10:14:13.548Z,18.60
2023-02-06T10:16:32.525Z,16.83
2023-02-06T10:18:46.889Z,18.13
2023-02-06T10:20:55.883Z,17.65
2023-02-06T10:23:13.050Z,17.15
2023-02-06T10:25:25.402Z,17.40
2023-02-06T10:27:30.322Z,16.08
2023-02-06T10:29:40.648Z,15.88
2023-02-06T10:32:10.767Z,13.73
2023-02-06T10:34:30.918Z,16.10
2023-02-06T10:36:49.390Z,15.65
2023-02-06T10:39:20.988Z,17.17
2023-02-06T10:41:35.660Z,18.50
2023-02-06T10:43:48.828Z,16.83
2023-02-06T10:46:03.205Z,15.65
2023-02-06T10:48:18.535Z,15.18
2023-02-06T10:50:31.489Z,14.68
2023-02-06T10:52:39.497Z,17.58
2023-02-06T10:54:52.516Z,20.17
2023-02-06T10:56:59.876Z,18.58
2023-02-06T10:59:09.018Z,17.85
2023-02-06T11:01:25.954Z,22.40
2023-02-06T11:03:33.328Z,18.83
2023-02-06T11:05:41.547Z,18.00
2023-02-06T11:07:51.706Z,17.27
2023-02-06T11:09:57.281Z,18.13
2023-02-06T11:12:03.924Z,15.75
2023-02-06T11:14:16.637Z,19.13
2023-02-06T11:16:27.380Z,16.25
2023-02-06T11:18:36.512Z,21.05
2023-02-06T11:20:47.248Z,18.38
2023-02-06T11:22:53.783Z,19.15
2023-02-06T11:25:05.424Z,20.27
2023-02-06T11:27:20.698Z,17.52
2023-02-06T11:29:28.096Z,15.18
2023-02-06T11:31:46.553Z,16.20
2023-02-06T11:33:53.859Z,16.40
2023-02-06T11:36:04.256Z,17.38
2023-02-06T11:38:17.220Z,15.75
2023-02-06T11:40:30.176Z,19.45
2023-02-06T11:42:36.422Z,17.45
2023-02-06T11:44:46.498Z,18.75
2023-02-06T11:46:51.387Z,20.08
2023-02-06T11:49:08.367Z,19.73
2023-02-06T11:51:17.092Z,18.65
2023-02-06T11:53:22.055Z,16.33
2023-02-06T11:55:30.417Z,18.90
2023-02-06T11:57:36.888Z,19.48
2023-02-06T11:59:54.584Z,14.40
2023-02-06T12:02:01.590Z,15.98
2023-02-06T12:04:07.205Z,19.35
2023-02-06T12:06:19.484Z,16.50
2023-02-06T12:08:25.769Z,16.17
2023-02-06T12:10:34.241Z,19.50
2023-02-06T12:12:43.445Z,20.58
2023-02-06T12:14:54.023Z,26.98
2023-02-06T12:17:00.183Z,21.30
2023-02-06T12:19:11.697Z,30.73
2023-02-06T12:21:27.141Z,18.77
2023-02-06T12:23:43.139Z,24.40
2023-02-06T12:25:52.008Z,24.25
2023-02-06T12:28:00.961Z,26.15
2023-02-06T12:30:25.912Z,20.63
2023-02-06T12:32:35.576Z,25.10
2023-02-06T12:34:53.856Z,19.23
2023-02-06T12:37:14.512Z,16.77
2023-02-06T12:39:22.603Z,15.90
2023-02-06T12:41:49.501Z,14.70
2023-02-06T12:43:59.759Z,13.10
2023-02-06T12:46:11.628Z,14.13
2023-02-06T12:48:21.493Z,12.98
2023-02-06T12:50:29.942Z,18.13
2023-02-06T12:52:44.062Z,16.27
2023-02-06T12:54:54.144Z,12.95
2023-02-06T12:57:03.288Z,12.15
2023-02-06T12:59:34.705Z,13.77
2023-02-06T13:01:52.917Z,15.23
2023-02-06T13:03:59.946Z,13.25
2023-02-06T13:06:15.741Z,16.20
2023-02-06T13:10:31.860Z,13.77
2023-02-06T13:12:37.530Z,14.23
2023-02-06T13:14:49.024Z,15.68
2023-02-06T13:16:56.743Z,12.25
2023-02-06T13:19:05.745Z,12.65
2023-02-06T13:21:19.164Z,12.18
2023-02-06T13:23:27.214Z,13.93
2023-02-06T13:25:52.765Z,18.15
2023-02-06T13:27:59.152Z,14.77
2023-02-06T13:30:20.546Z,20.02
2023-02-06T13:32:50.180Z,12.82
2023-02-06T13:35:01.172Z,12.15
2023-02-06T13:37:23.989Z,12.43
2023-02-06T13:39:36.323Z,16.67
2023-02-06T13:41:42.723Z,13.32
2023-02-06T13:43:53.083Z,12.20
2023-02-06T13:46:01.250Z,11.98
2023-02-06T13:48:55.150Z,13.43
2023-02-06T13:51:27.779Z,12.10
2023-02-06T13:53:54.142Z,11.35
2023-02-06T13:58:47.888Z,13.15
2023-02-06T14:00:54.429Z,12.60
2023-02-06T14:03:08.291Z,12.27
2023-02-06T14:05:16.424Z,10.30
2023-02-06T14:07:45.119Z,11.18
2023-02-06T14:10:13.389Z,13.77
2023-02-06T14:12:32.255Z,13.27
2023-02-06T14:14:51.360Z,13.05
2023-02-06T14:17:07.871Z,13.07
2023-02-06T14:19:22.842Z,9.60
2023-02-06T14:21:40.169Z,10.90
2023-02-06T14:24:02.183Z,15.50
2023-02-06T14:26:25.306Z,11.55
2023-02-06T14:28:40.799Z,14.05
2023-02-06T14:30:53.677Z,11.75
2023-02-06T14:33:13.846Z,13.15
2023-02-06T14:35:40.019Z,13.38
2023-02-06T14:39:55.900Z,14.50
2023-02-06T14:42:01.238Z,11.63
2023-02-06T14:46:22.749Z,12.90
2023-02-06T14:48:34.595Z,13.77
2023-02-06T14:50:42.308Z,10.98
2023-02-06T14:52:50.714Z,13.82
2023-02-06T14:54:55.938Z,14.35
2023-02-06T14:59:23.959Z,15.95
2023-02-06T15:01:32.620Z,13.70
2023-02-06T15:03:37.771Z,12.30
2023-02-06T15:05:42.615Z,13.38
2023-02-06T15:07:47.422Z,15.45
2023-02-06T15:09:59.828Z,10.90
2023-02-06T15:12:07.666Z,11.50
2023-02-06T15:14:28.360Z,12.88
2023-02-06T15:16:33.596Z,12.98
2023-02-06T15:20:45.846Z,12.15
2023-02-06T15:22:50.731Z,13.68
2023-02-06T15:25:10.849Z,13.10
2023-02-06T15:27:24.411Z,13.50
2023-02-06T15:29:32.617Z,10.25
2023-02-06T15:31:37.470Z,12.70
2023-02-06T15:33:44.930Z,13.63
2023-02-06T15:35:53.145Z,12.30
2023-02-06T15:37:59.076Z,14.15
2023-02-06T15:40:12.078Z,14.30
2023-02-06T15:42:17.278Z,15.57
2023-02-06T15:46:35.184Z,12.93
2023-02-06T15:48:43.767Z,11.98
2023-02-06T15:50:59.300Z,16.20
2023-02-06T15:53:20.086Z,11.15
2023-02-06T15:55:27.534Z,15.20
2023-02-06T15:57:36.402Z,14.88
2023-02-06T15:59:46.758Z,13.20
2023-02-06T16:01:56.926Z,14.35
2023-02-06T16:04:05.491Z,14.05
2023-02-06T16:06:17.621Z,24.42
2023-02-06T16:08:25.293Z,15.07
2023-02-06T16:10:32.071Z,24.33
2023-02-06T16:12:38.467Z,19.48
2023-02-06T16:14:45.329Z,29.63
2023-02-06T16:17:02.895Z,17.05
2023-02-06T16:19:32.316Z,14.00
2023-02-06T16:21:42.265Z,13.70
2023-02-06T16:23:48.844Z,13.95
2023-02-06T16:26:05.142Z,14.75
2023-02-06T16:28:23.103Z,27.10
2023-02-06T16:30:31.056Z,16.13
2023-02-06T16:32:38.772Z,13.13
2023-02-06T16:34:47.377Z,12.93
2023-02-06T16:36:52.222Z,16.42
2023-02-06T16:39:03.575Z,14.40
2023-02-06T16:41:26.891Z,15.38
2023-02-06T16:43:33.387Z,16.48
2023-02-06T16:45:38.228Z,20.65
2023-02-06T16:47:45.800Z,17.15
2023-02-06T16:49:51.222Z,14.90
2023-02-06T16:51:56.961Z,16.02
2023-02-06T16:54:02.640Z,14.32
2023-02-06T16:56:08.287Z,16.30
2023-02-06T16:58:19.174Z,12.57
2023-02-06T17:00:26.600Z,14.40
2023-02-06T17:02:31.540Z,12.38
2023-02-06T17:04:40.508Z,14.27
2023-02-06T17:06:45.462Z,17.13
2023-02-06T17:08:50.875Z,16.08
2023-02-06T17:10:56.007Z,14.95
2023-02-06T17:15:05.590Z,16.63
2023-02-06T17:17:11.845Z,14.73
2023-02-06T17:19:17.774Z,21.15
2023-02-06T17:21:29.788Z,15.73
2023-02-06T17:23:35.350Z,12.00
2023-02-06T17:25:43.006Z,15.60
2023-02-06T17:27:47.991Z,13.25
2023-02-06T17:29:53.910Z,14.65
2023-02-06T17:31:58.785Z,17.33
2023-02-06T17:34:03.747Z,16.02
2023-02-06T17:36:15.776Z,15.55
2023-02-06T17:38:23.254Z,15.18
2023-02-06T17:40:29.852Z,13.05
2023-02-06T17:42:34.738Z,15.98
2023-02-06T17:44:41.774Z,12.05
2023-02-06T17:46:48.337Z,13.00
2023-02-06T17:48:53.195Z,13.15
2023-02-06T17:50:58.115Z,12.70
2023-02-06T17:53:03.901Z,11.55
2023-02-06T17:55:12.646Z,14.90
2023-02-06T17:57:17.545Z,12.77
2023-02-06T17:59:22.472Z,10.25
2023-02-06T18:01:27.566Z,11.07
2023-02-06T18:03:32.708Z,8.82
2023-02-06T18:05:38.015Z,9.32
2023-02-06T18:07:44.310Z,11.60
2023-02-06T18:09:49.927Z,11.15
2023-02-06T18:11:57.539Z,13.40
2023-02-06T18:14:02.385Z,10.20
2023-02-06T18:16:08.132Z,15.43
2023-02-06T18:18:13.034Z,9.75
2023-02-06T18:20:19.050Z,10.65
2023-02-06T18:22:24.722Z,9.75
2023-02-06T18:24:29.765Z,8.70
2023-02-06T18:26:34.598Z,12.40
2023-02-06T18:28:42.779Z,11.73
2023-02-06T18:30:48.368Z,9.88
2023-02-06T18:32:53.344Z,9.55
2023-02-06T18:34:58.264Z,10.68
2023-02-06T18:37:03.309Z,11.77
2023-02-06T18:39:08.934Z,10.25
2023-02-06T18:41:34.235Z,15.45
2023-02-06T18:43:39.269Z,18.40
2023-02-06T18:45:44.993Z,11.35
2023-02-06T18:47:51.498Z,12.18
2023-02-06T18:49:56.369Z,12.73
2023-02-06T18:52:01.218Z,13.68
2023-02-06T18:54:07.878Z,11.15
2023-02-06T18:56:12.859Z,14.85
2023-02-06T18:58:17.813Z,11.65
2023-02-06T19:00:26.748Z,10.00
2023-02-06T19:02:31.742Z,11.30
2023-02-06T19:04:38.005Z,11.77
2023-02-06T19:06:44.736Z,10.80
2023-02-06T19:08:50.098Z,11.15
2023-02-06T19:12:59.684Z,13.00
2023-02-06T19:15:04.862Z,10.65
2023-02-06T19:19:17.515Z,10.70
2023-02-06T19:23:28.022Z,8.45
2023-02-06T19:25:32.894Z,8.23
2023-02-06T19:27:38.538Z,8.73
2023-02-06T19:29:46.205Z,9.18
2023-02-06T19:31:51.224Z,7.72
2023-02-06T19:34:01.925Z,8.65
2023-02-06T19:36:09.634Z,10.73
2023-02-06T19:38:14.470Z,10.32
2023-02-06T19:40:19.960Z,10.50
2023-02-06T19:42:24.884Z,10.75
2023-02-06T19:44:32.187Z,11.73
2023-02-06T19:46:38.821Z,9.25
2023-02-06T19:48:47.398Z,8.32
2023-02-06T19:50:54.797Z,10.45
2023-02-06T19:53:00.138Z,9.77
2023-02-06T19:55:05.266Z,10.45
2023-02-06T19:59:18.378Z,8.30
2023-02-06T20:01:23.417Z,9.30
2023-02-06T20:03:31.548Z,10.55
2023-02-06T20:05:36.656Z,8.43
2023-02-06T20:07:44.173Z,10.82
2023-02-06T20:09:50.942Z,9.48
2023-02-06T20:11:55.981Z,8.70
2023-02-06T20:14:01.327Z,12.38
2023-02-06T20:16:07.924Z,11.07
2023-02-06T20:18:12.971Z,9.77
2023-02-06T20:20:17.842Z,6.93
2023-02-06T20:22:22.877Z,7.90
2023-02-06T20:26:39.691Z,8.57
2023-02-06T20:28:44.549Z,8.60
2023-02-06T20:30:49.692Z,5.97
2023-02-06T20:34:59.744Z,7.95
2023-02-06T20:37:04.935Z,7.30
2023-02-06T20:41:17.133Z,7.60
2023-02-06T20:43:21.970Z,9.07
2023-02-06T20:45:27.281Z,11.68
2023-02-06T20:47:32.139Z,9.65
2023-02-06T20:49:36.996Z,9.73
2023-02-06T20:51:41.946Z,10.30
2023-02-06T20:53:46.801Z,8.98
2023-02-06T20:55:51.906Z,8.88
2023-02-06T20:57:59.329Z,8.73
2023-02-06T21:00:04.199Z,8.82
2023-02-06T21:02:09.103Z,13.88
2023-02-06T21:04:15.764Z,11.88
2023-02-06T21:06:21.202Z,10.65
2023-02-06T21:08:26.786Z,9.70
2023-02-06T21:10:32.067Z,8.38
2023-02-06T21:12:37.005Z,11.82
2023-02-06T21:14:44.557Z,9.70
2023-02-06T21:16:50.081Z,10.63
2023-02-06T21:18:55.029Z,11.70
2023-02-06T21:21:07.303Z,14.40
2023-02-06T21:23:12.644Z,15.07
2023-02-06T21:25:17.470Z,13.88
2023-02-06T21:27:22.429Z,11.23
2023-02-06T21:29:27.458Z,13.68
2023-02-06T21:31:38.317Z,12.30
2023-02-06T21:33:48.941Z,12.38
2023-02-06T21:35:54.137Z,12.60
2023-02-06T21:37:59.365Z,12.48
2023-02-06T21:42:09.259Z,14.10
2023-02-06T21:44:14.545Z,11.57
2023-02-06T21:46:19.543Z,14.27
2023-02-06T21:48:27.049Z,11.88
2023-02-06T21:50:31.908Z,12.27
2023-02-06T21:52:37.925Z,12.85
2023-02-06T21:54:42.894Z,12.27
2023-02-06T21:56:47.764Z,12.85
2023-02-06T21:58:53.457Z,11.63
2023-02-06T22:00:58.301Z,13.48
2023-02-06T22:03:03.180Z,14.38
2023-02-06T22:05:11.342Z,15.38
2023-02-06T22:07:16.188Z,13.27
2023-02-06T22:09:21.122Z,14.15
2023-02-06T22:11:28.400Z,15.55
2023-02-06T22:13:33.794Z,16.10
2023-02-06T22:15:39.222Z,14.75
2023-02-06T22:17:44.467Z,17.35
2023-02-06T22:19:50.327Z,16.73
2023-02-06T22:21:57.864Z,20.90
2023-02-06T22:24:04.650Z,17.10
2023-02-06T22:26:10.826Z,17.77
2023-02-06T22:28:15.853Z,18.52
2023-02-06T22:30:21.380Z,15.45
2023-02-06T22:32:26.266Z,16.15
2023-02-06T22:34:31.071Z,16.45
2023-02-06T22:36:36.331Z,15.88
2023-02-06T22:38:47.130Z,18.52
2023-02-06T22:41:00.794Z,17.00
2023-02-06T22:43:05.681Z,18.13
2023-02-06T22:45:11.182Z,16.67
2023-02-06T22:47:16.007Z,17.90
2023-02-06T22:49:21.686Z,18.52
2023-02-06T22:51:26.790Z,19.10
2023-02-06T22:55:58.297Z,15.27
2023-02-06T22:58:03.140Z,19.77
2023-02-06T23:00:12.243Z,19.00
2023-02-06T23:02:17.230Z,32.20
2023-02-06T23:04:24.311Z,22.50
2023-02-06T23:06:30.850Z,19.20
2023-02-06T23:08:37.006Z,19.10
2023-02-06T23:10:44.395Z,21.30
2023-02-06T23:12:49.221Z,16.63
2023-02-06T23:14:54.392Z,16.85
2023-02-06T23:19:05.777Z,18.05
2023-02-06T23:21:12.781Z,19.70
2023-02-06T23:23:17.574Z,17.30
2023-02-06T23:25:22.396Z,17.88
2023-02-06T23:27:30.421Z,17.63
2023-02-06T23:29:35.307Z,20.83
2023-02-06T23:31:40.186Z,21.55
2023-02-06T23:33:45.265Z,21.02
2023-02-06T23:37:55.619Z,20.40
2023-02-06T23:40:00.599Z,18.92
2023-02-06T23:42:05.461Z,24.35
2023-02-06T23:44:13.932Z,18.10
2023-02-06T23:46:20.164Z,20.08
2023-02-06T23:48:25.099Z,20.40
2023-02-06T23:50:30.358Z,17.48
2023-02-06T23:52:35.301Z,20.30
2023-02-06T23:54:40.148Z,21.33
2023-02-06T23:56:44.977Z,19.95
2023-02-06T23:58:51.568Z,18.45
